createdAt,value
2017-07-18T00:01:47.911Z,5.77
2017-07-18T00:04:15.388Z,6.03
2017-07-18T00:06:42.868Z,6.60
2017-07-18T00:09:10.363Z,5.73
2017-07-18T00:11:37.834Z,6.47
2017-07-18T00:14:05.331Z,6.33
2017-07-18T00:16:33.582Z,6.87
2017-07-18T00:19:01.058Z,5.87
2017-07-18T00:21:29.314Z,6.20
2017-07-18T00:23:56.794Z,5.50
2017-07-18T00:26:25.063Z,6.17
2017-07-18T00:28:52.534Z,5.87
2017-07-18T00:31:20.799Z,6.00
2017-07-18T00:33:48.288Z,5.93
2017-07-18T00:36:17.019Z,5.33
2017-07-18T00:38:44.489Z,5.47
2017-07-18T00:41:12.015Z,6.27
2017-07-18T00:43:39.485Z,6.67
2017-07-18T00:46:06.974Z,6.80
2017-07-18T00:48:34.472Z,5.80
2017-07-18T00:51:01.962Z,5.93
2017-07-18T00:53:29.452Z,6.60
2017-07-18T00:55:57.688Z,7.00
2017-07-18T00:58:25.189Z,6.27
2017-07-18T01:00:53.445Z,6.30
2017-07-18T01:03:20.932Z,6.57
2017-07-18T01:05:49.169Z,6.93
2017-07-18T01:08:16.678Z,7.40
2017-07-18T01:10:44.169Z,7.13
2017-07-18T01:13:11.651Z,6.03
2017-07-18T01:15:39.154Z,6.50
2017-07-18T01:18:06.627Z,6.63
2017-07-18T01:20:34.126Z,6.63
2017-07-18T01:23:01.608Z,6.67
2017-07-18T01:25:29.849Z,7.00
2017-07-18T01:27:57.344Z,6.33
2017-07-18T01:30:25.599Z,7.00
2017-07-18T01:32:53.906Z,6.40
2017-07-18T01:35:21.767Z,7.17
2017-07-18T01:37:49.993Z,6.10
2017-07-18T01:40:17.485Z,7.03
2017-07-18T01:42:45.732Z,5.83
2017-07-18T01:45:13.213Z,6.43
2017-07-18T01:47:40.702Z,6.93
2017-07-18T01:50:08.179Z,6.00
2017-07-18T01:52:35.679Z,6.60
2017-07-18T01:55:03.189Z,6.50
2017-07-18T01:57:30.728Z,6.90
2017-07-18T01:59:58.962Z,6.73
2017-07-18T02:02:26.472Z,7.20
2017-07-18T02:04:54.389Z,7.10
2017-07-18T02:07:21.912Z,6.40
2017-07-18T02:09:49.395Z,6.80
2017-07-18T02:12:16.870Z,6.93
2017-07-18T02:14:44.364Z,6.67
2017-07-18T02:17:11.829Z,6.70
2017-07-18T02:19:39.338Z,6.67
2017-07-18T02:22:06.815Z,6.37
2017-07-18T02:24:34.298Z,7.07
2017-07-18T02:27:01.775Z,6.77
2017-07-18T02:29:29.261Z,7.13
2017-07-18T02:31:56.738Z,6.80
2017-07-18T02:34:24.249Z,7.10
2017-07-18T02:36:51.731Z,7.23
2017-07-18T02:39:19.215Z,6.77
2017-07-18T02:41:46.702Z,7.40
2017-07-18T02:44:14.186Z,6.40
2017-07-18T02:46:41.695Z,6.93
2017-07-18T02:49:11.021Z,6.53
2017-07-18T02:51:38.509Z,7.63
2017-07-18T02:54:06.003Z,7.30
2017-07-18T02:56:33.511Z,7.20
2017-07-18T02:59:00.981Z,6.33
2017-07-18T03:01:28.477Z,7.30
2017-07-18T03:03:56.888Z,6.83
2017-07-18T03:06:24.373Z,7.13
2017-07-18T03:08:51.870Z,7.40
2017-07-18T03:11:19.358Z,6.80
2017-07-18T03:13:47.615Z,7.17
2017-07-18T03:16:15.091Z,7.60
2017-07-18T03:18:43.352Z,7.10
2017-07-18T03:21:10.827Z,6.53
2017-07-18T03:23:38.325Z,6.37
2017-07-18T03:26:05.804Z,6.83
2017-07-18T03:28:33.285Z,7.57
2017-07-18T03:31:00.800Z,7.77
2017-07-18T03:33:28.297Z,6.80
2017-07-18T03:35:55.787Z,7.20
2017-07-18T03:38:23.269Z,6.80
2017-07-18T03:40:50.765Z,5.90
2017-07-18T03:43:18.247Z,6.60
2017-07-18T03:45:47.035Z,7.27
2017-07-18T03:48:15.271Z,7.10
2017-07-18T03:50:42.765Z,6.57
2017-07-18T03:53:11.138Z,7.13
2017-07-18T03:55:39.397Z,7.70
2017-07-18T03:58:06.883Z,6.30
2017-07-18T04:00:34.431Z,7.20
2017-07-18T04:03:02.702Z,6.33
2017-07-18T04:05:30.945Z,6.60
2017-07-18T04:07:58.455Z,7.30
2017-07-18T04:10:25.930Z,6.93
2017-07-18T04:12:53.434Z,6.50
2017-07-18T04:15:20.898Z,7.00
2017-07-18T04:17:49.537Z,7.27
2017-07-18T04:20:17.026Z,7.20
2017-07-18T04:22:44.512Z,6.80
2017-07-18T04:25:12.767Z,7.10
2017-07-18T04:27:40.238Z,6.63
2017-07-18T04:30:11.989Z,7.60
2017-07-18T04:32:39.508Z,7.23
2017-07-18T04:35:07.364Z,6.80
2017-07-18T04:37:34.841Z,6.87
2017-07-18T04:40:02.342Z,8.07
2017-07-18T04:42:30.609Z,7.10
2017-07-18T04:44:58.085Z,7.00
2017-07-18T04:47:26.377Z,8.07
2017-07-18T04:49:53.858Z,6.80
2017-07-18T04:52:22.318Z,7.30
2017-07-18T04:54:49.800Z,7.20
2017-07-18T04:57:17.291Z,7.00
2017-07-18T04:59:44.786Z,7.17
2017-07-18T05:02:12.293Z,7.27
2017-07-18T05:04:39.777Z,6.70
2017-07-18T05:07:08.034Z,6.93
2017-07-18T05:09:35.554Z,7.40
2017-07-18T05:12:03.034Z,7.50
2017-07-18T05:14:30.543Z,8.17
2017-07-18T05:16:58.788Z,6.87
2017-07-18T05:19:26.302Z,7.80
2017-07-18T05:21:53.774Z,8.07
2017-07-18T05:24:21.274Z,7.57
2017-07-18T05:26:49.516Z,7.53
2017-07-18T05:29:16.997Z,7.50
2017-07-18T05:31:44.477Z,7.60
2017-07-18T05:34:12.734Z,8.30
2017-07-18T05:36:40.215Z,9.43
2017-07-18T05:39:08.485Z,8.80
2017-07-18T05:41:36.730Z,8.07
2017-07-18T05:44:04.223Z,9.20
2017-07-18T05:46:32.490Z,8.63
2017-07-18T05:48:59.998Z,9.43
2017-07-18T05:51:27.499Z,8.97
2017-07-18T05:53:54.996Z,9.57
2017-07-18T05:56:22.535Z,8.60
2017-07-18T05:58:50.028Z,9.03
2017-07-18T06:01:17.519Z,9.50
2017-07-18T06:03:44.994Z,9.13
2017-07-18T06:06:12.497Z,8.23
2017-07-18T06:08:39.987Z,8.40
2017-07-18T06:11:07.483Z,9.40
2017-07-18T06:13:35.742Z,8.90
2017-07-18T06:16:03.309Z,8.77
2017-07-18T06:18:31.574Z,9.67
2017-07-18T06:20:59.076Z,8.70
2017-07-18T06:23:26.608Z,8.90
2017-07-18T06:25:54.889Z,8.27
2017-07-18T06:28:23.163Z,8.23
2017-07-18T06:30:51.404Z,8.13
2017-07-18T06:33:18.952Z,8.77
2017-07-18T06:35:47.171Z,8.17
2017-07-18T06:38:15.435Z,8.37
2017-07-18T06:40:43.847Z,8.00
2017-07-18T06:43:11.358Z,18.97
2017-07-18T06:45:38.940Z,7.63
2017-07-18T06:48:06.425Z,7.90
2017-07-18T06:50:33.922Z,7.77
2017-07-18T06:53:01.388Z,7.40
2017-07-18T06:55:28.897Z,7.77
2017-07-18T06:57:56.372Z,7.50
2017-07-18T07:00:24.705Z,6.90
2017-07-18T07:02:53.452Z,8.07
2017-07-18T07:05:20.967Z,8.03
2017-07-18T07:07:48.452Z,7.17
2017-07-18T07:10:15.968Z,7.50
2017-07-18T07:12:44.224Z,6.70
2017-07-18T07:15:11.688Z,6.70
2017-07-18T07:17:39.169Z,6.57
2017-07-18T07:20:07.414Z,6.37
2017-07-18T07:22:34.910Z,5.67
2017-07-18T07:25:03.427Z,6.20
2017-07-18T07:27:30.934Z,7.00
2017-07-18T07:29:59.174Z,6.37
2017-07-18T07:32:26.667Z,6.23
2017-07-18T07:34:54.930Z,6.60
2017-07-18T07:37:22.413Z,6.03
2017-07-18T07:39:50.666Z,6.33
2017-07-18T07:42:18.179Z,5.60
2017-07-18T07:44:45.660Z,6.13
2017-07-18T07:47:13.138Z,6.23
2017-07-18T07:49:40.636Z,6.70
2017-07-18T07:52:08.108Z,6.63
2017-07-18T07:54:35.608Z,5.70
2017-07-18T07:57:03.094Z,5.30
2017-07-18T07:59:37.972Z,5.47
2017-07-18T08:02:05.443Z,4.77
2017-07-18T08:04:33.192Z,5.00
2017-07-18T08:07:00.676Z,4.77
2017-07-18T08:09:28.168Z,4.53
2017-07-18T08:11:56.409Z,4.80
2017-07-18T08:14:23.920Z,5.30
2017-07-18T08:16:51.416Z,4.87
2017-07-18T08:19:18.896Z,4.30
2017-07-18T08:21:47.183Z,3.90
2017-07-18T08:24:15.425Z,4.80
2017-07-18T08:26:43.125Z,5.10
2017-07-18T08:29:11.369Z,4.07
2017-07-18T08:31:38.879Z,4.63
2017-07-18T08:37:04.013Z,4.50
2017-07-18T08:39:31.491Z,3.97
2017-07-18T08:41:58.973Z,4.10
2017-07-18T08:44:26.452Z,4.00
2017-07-18T08:49:47.478Z,4.40
2017-07-18T08:52:15.746Z,4.20
2017-07-18T08:54:43.212Z,3.40
2017-07-18T08:57:11.472Z,3.60
2017-07-18T08:59:39.040Z,4.17
2017-07-18T09:02:07.329Z,4.30
2017-07-18T09:04:35.600Z,3.30
2017-07-18T09:07:12.231Z,3.50
2017-07-18T09:09:39.721Z,3.77
2017-07-18T09:12:07.961Z,3.90
2017-07-18T09:14:35.454Z,3.97
2017-07-18T09:17:02.937Z,3.90
2017-07-18T09:19:30.428Z,4.23
2017-07-18T09:21:57.911Z,3.60
2017-07-18T09:24:25.393Z,4.00
2017-07-18T09:26:53.641Z,3.53
2017-07-18T09:29:21.148Z,3.10
2017-07-18T09:31:48.642Z,3.27
2017-07-18T09:34:16.155Z,3.77
2017-07-18T09:36:44.406Z,3.70
2017-07-18T09:39:11.881Z,4.00
2017-07-18T09:44:34.046Z,3.83
2017-07-18T09:49:55.133Z,4.10
2017-07-18T09:52:22.609Z,3.70
2017-07-18T09:54:50.886Z,3.60
2017-07-18T09:57:18.354Z,3.50
2017-07-18T09:59:46.611Z,3.40
2017-07-18T10:02:14.104Z,3.30
2017-07-18T10:04:41.600Z,3.10
2017-07-18T10:07:09.078Z,3.33
2017-07-18T10:09:36.576Z,2.90
2017-07-18T10:12:04.067Z,3.30
2017-07-18T10:14:31.687Z,3.70
2017-07-18T10:16:59.213Z,3.50
2017-07-18T10:19:26.685Z,3.63
2017-07-18T10:21:54.200Z,3.30
2017-07-18T10:24:21.691Z,3.20
2017-07-18T10:26:49.163Z,2.50
2017-07-18T10:29:17.415Z,3.03
2017-07-18T10:31:45.632Z,3.20
2017-07-18T10:34:13.114Z,3.30
2017-07-18T10:36:40.581Z,3.10
2017-07-18T10:39:09.040Z,3.23
2017-07-18T10:41:36.524Z,3.50
2017-07-18T10:44:04.466Z,3.17
2017-07-18T10:46:31.948Z,3.10
2017-07-18T10:48:59.438Z,3.00
2017-07-18T10:51:26.916Z,2.97
2017-07-18T10:53:55.179Z,3.17
2017-07-18T10:56:22.657Z,3.20
2017-07-18T10:58:50.898Z,3.27
2017-07-18T11:01:18.396Z,2.80
2017-07-18T11:03:45.864Z,2.60
2017-07-18T11:06:13.367Z,3.03
2017-07-18T11:08:40.837Z,3.60
2017-07-18T11:11:08.322Z,3.47
2017-07-18T11:13:36.568Z,3.03
2017-07-18T11:16:07.108Z,3.23
2017-07-18T11:18:35.351Z,3.80
2017-07-18T11:23:56.460Z,3.67
2017-07-18T11:26:23.949Z,3.60
2017-07-18T11:28:51.423Z,3.40
2017-07-18T11:31:18.938Z,3.70
2017-07-18T11:33:46.424Z,3.47
2017-07-18T11:36:14.733Z,3.17
2017-07-18T11:38:42.996Z,3.30
2017-07-18T11:41:10.474Z,3.53
2017-07-18T11:43:38.730Z,3.53
2017-07-18T11:46:06.409Z,3.33
2017-07-18T11:48:34.694Z,3.33
2017-07-18T11:51:23.331Z,3.63
2017-07-18T11:53:51.590Z,3.40
2017-07-18T11:56:19.073Z,3.10
2017-07-18T11:58:46.580Z,3.10
2017-07-18T12:01:14.801Z,3.07
2017-07-18T12:03:43.073Z,3.20
2017-07-18T12:06:11.965Z,3.70
2017-07-18T12:08:40.219Z,3.70
2017-07-18T12:11:07.708Z,3.40
2017-07-18T12:13:35.991Z,4.10
2017-07-18T12:16:04.247Z,3.77
2017-07-18T12:18:44.425Z,4.50
2017-07-18T12:21:11.929Z,4.60
2017-07-18T12:23:39.407Z,3.80
2017-07-18T12:26:06.901Z,5.00
2017-07-18T12:28:34.384Z,3.83
2017-07-18T12:31:01.879Z,4.33
2017-07-18T12:33:29.353Z,3.57
2017-07-18T12:35:57.624Z,3.97
2017-07-18T12:38:25.119Z,3.60
2017-07-18T12:40:52.620Z,3.77
2017-07-18T12:43:20.893Z,4.10
2017-07-18T12:45:48.364Z,3.87
2017-07-18T12:48:15.856Z,4.10
2017-07-18T12:50:43.337Z,4.40
2017-07-18T12:53:10.823Z,4.70
2017-07-18T12:55:38.303Z,4.03
2017-07-18T12:58:05.821Z,4.17
2017-07-18T13:00:33.300Z,4.00
2017-07-18T13:03:00.798Z,4.30
2017-07-18T13:05:29.040Z,3.87
2017-07-18T13:07:56.540Z,3.43
2017-07-18T13:10:24.015Z,3.83
2017-07-18T13:12:51.482Z,3.83
2017-07-18T13:15:18.967Z,3.30
2017-07-18T13:17:46.439Z,3.57
2017-07-18T13:20:14.955Z,3.73
2017-07-18T13:22:42.441Z,4.07
2017-07-18T13:25:09.933Z,3.70
2017-07-18T13:27:37.428Z,3.77
2017-07-18T13:30:04.934Z,3.97
2017-07-18T13:32:32.398Z,3.73
2017-07-18T13:34:59.884Z,4.13
2017-07-18T13:37:34.822Z,4.10
2017-07-18T13:40:03.976Z,3.80
2017-07-18T13:42:31.460Z,3.80
2017-07-18T13:44:59.704Z,3.30
2017-07-18T13:47:27.189Z,3.30
2017-07-18T13:49:54.670Z,3.83
2017-07-18T13:52:22.975Z,3.97
2017-07-18T13:54:50.449Z,3.33
2017-07-18T13:57:17.949Z,4.13
2017-07-18T13:59:46.208Z,4.07
2017-07-18T14:02:13.702Z,3.90
2017-07-18T14:04:41.491Z,3.70
2017-07-18T14:07:08.992Z,4.03
2017-07-18T14:09:36.460Z,3.20
2017-07-18T14:12:14.529Z,3.37
2017-07-18T14:14:42.013Z,3.80
2017-07-18T14:17:09.485Z,3.10
2017-07-18T14:19:37.766Z,3.50
2017-07-18T14:22:05.996Z,4.37
2017-07-18T14:24:33.487Z,3.43
2017-07-18T14:27:00.975Z,3.63
2017-07-18T14:29:28.462Z,3.70
2017-07-18T14:31:55.973Z,3.87
2017-07-18T14:34:24.249Z,3.87
2017-07-18T14:36:53.325Z,3.43
2017-07-18T14:39:21.653Z,3.83
2017-07-18T14:41:49.153Z,3.70
2017-07-18T14:44:16.633Z,3.47
2017-07-18T14:49:38.357Z,3.70
2017-07-18T14:52:05.849Z,4.67
2017-07-18T14:54:33.316Z,3.60
2017-07-18T14:57:02.723Z,3.50
2017-07-18T14:59:30.239Z,3.40
2017-07-18T15:01:57.888Z,3.40
2017-07-18T15:04:25.380Z,3.43
2017-07-18T15:07:13.660Z,4.23
2017-07-18T15:09:41.176Z,4.23
2017-07-18T15:12:09.431Z,3.60
2017-07-18T15:14:36.918Z,3.50
2017-07-18T15:17:05.170Z,4.30
2017-07-18T15:19:33.545Z,3.30
2017-07-18T15:22:01.008Z,3.90
2017-07-18T15:24:28.494Z,4.00
2017-07-18T15:26:55.979Z,3.27
2017-07-18T15:29:23.457Z,3.87
2017-07-18T15:31:50.967Z,3.83
2017-07-18T15:37:13.219Z,3.97
2017-07-18T15:39:48.051Z,3.70
2017-07-18T15:48:02.043Z,4.10
2017-07-18T15:50:29.543Z,3.80
2017-07-18T15:52:57.041Z,4.03
2017-07-18T15:55:25.292Z,3.50
2017-07-18T15:57:53.533Z,3.80
2017-07-18T16:00:21.230Z,3.90
2017-07-18T16:02:55.773Z,4.17
2017-07-18T16:05:24.248Z,3.33
2017-07-18T16:07:52.586Z,3.73
2017-07-18T16:10:20.068Z,3.77
2017-07-18T16:12:47.554Z,3.80
2017-07-18T16:15:15.804Z,3.87
2017-07-18T16:17:43.325Z,3.40
2017-07-18T16:20:10.804Z,3.90
2017-07-18T16:22:39.220Z,3.67
2017-07-18T16:25:07.483Z,3.60
2017-07-18T16:27:35.086Z,3.83
2017-07-18T16:30:02.578Z,3.70
2017-07-18T16:32:30.055Z,3.87
2017-07-18T16:34:57.526Z,4.40
2017-07-18T16:37:25.765Z,3.40
2017-07-18T16:39:53.254Z,3.63
2017-07-18T16:42:20.729Z,3.00
2017-07-18T16:44:48.970Z,3.70
2017-07-18T16:47:16.450Z,3.80
2017-07-18T16:49:43.940Z,3.50
2017-07-18T16:52:12.055Z,3.70
2017-07-18T16:54:39.545Z,4.17
2017-07-18T16:57:07.781Z,4.80
2017-07-18T16:59:35.267Z,3.50
2017-07-18T17:02:03.444Z,4.30
2017-07-18T17:04:31.701Z,3.37
2017-07-18T17:06:59.197Z,4.10
2017-07-18T17:09:26.687Z,3.70
2017-07-18T17:11:54.169Z,3.60
2017-07-18T17:14:21.647Z,3.13
2017-07-18T17:16:49.123Z,4.00
2017-07-18T17:19:17.363Z,3.90
2017-07-18T17:21:44.849Z,4.17
2017-07-18T17:24:13.799Z,3.73
2017-07-18T17:26:41.303Z,3.93
2017-07-18T17:29:09.545Z,3.60
2017-07-18T17:31:37.024Z,3.90
2017-07-18T17:34:04.503Z,3.93
2017-07-18T17:36:32.751Z,3.73
2017-07-18T17:39:00.265Z,3.67
2017-07-18T17:41:27.753Z,3.93
2017-07-18T17:43:55.237Z,4.00
2017-07-18T17:46:23.562Z,3.90
2017-07-18T17:48:51.207Z,4.13
2017-07-18T17:51:18.710Z,3.93
2017-07-18T17:53:46.198Z,3.67
2017-07-18T17:56:14.453Z,4.03
2017-07-18T17:58:42.805Z,3.77
2017-07-18T18:01:10.283Z,4.17
2017-07-18T18:03:37.759Z,3.37
2017-07-18T18:06:05.271Z,3.90
2017-07-18T18:08:33.553Z,4.20
2017-07-18T18:11:01.229Z,3.87
2017-07-18T18:13:28.698Z,3.90
2017-07-18T18:15:56.195Z,3.77
2017-07-18T18:18:23.671Z,4.00
2017-07-18T18:20:51.388Z,3.90
2017-07-18T18:23:19.644Z,4.70
2017-07-18T18:25:47.157Z,3.47
2017-07-18T18:28:14.655Z,3.77
2017-07-18T18:30:42.149Z,4.00
2017-07-18T18:33:10.400Z,4.40
2017-07-18T18:35:37.879Z,3.50
2017-07-18T18:38:06.145Z,4.83
2017-07-18T18:40:33.637Z,3.90
2017-07-18T18:43:01.435Z,3.60
2017-07-18T18:45:28.931Z,4.30
2017-07-18T18:47:56.430Z,4.07
2017-07-18T18:50:23.913Z,4.57
2017-07-18T18:52:51.409Z,4.20
2017-07-18T18:55:19.678Z,4.30
2017-07-18T18:57:47.159Z,3.80
2017-07-18T19:00:15.423Z,4.83
2017-07-18T19:02:43.671Z,4.03
2017-07-18T19:05:11.366Z,3.80
2017-07-18T19:07:39.620Z,4.10
2017-07-18T19:10:07.105Z,4.40
2017-07-18T19:12:35.290Z,4.17
2017-07-18T19:15:03.696Z,4.10
2017-07-18T19:17:31.483Z,4.40
2017-07-18T19:19:58.955Z,4.17
2017-07-18T19:22:26.438Z,4.87
2017-07-18T19:24:54.686Z,4.50
2017-07-18T19:27:22.178Z,4.30
2017-07-18T19:29:49.642Z,4.03
2017-07-18T19:32:17.143Z,4.47
2017-07-18T19:34:44.625Z,4.20
2017-07-18T19:37:12.638Z,4.63
2017-07-18T19:39:40.131Z,4.53
2017-07-18T19:42:07.609Z,4.83
2017-07-18T19:44:35.110Z,4.40
2017-07-18T19:47:02.585Z,4.93
2017-07-18T19:49:30.066Z,5.30
2017-07-18T19:51:57.532Z,4.93
2017-07-18T19:54:25.048Z,4.47
2017-07-18T19:56:52.568Z,4.40
2017-07-18T19:59:20.810Z,4.70
2017-07-18T20:01:48.318Z,4.40
2017-07-18T20:04:15.806Z,4.80
2017-07-18T20:06:43.296Z,4.80
2017-07-18T20:09:10.773Z,4.30
2017-07-18T20:11:38.310Z,4.40
2017-07-18T20:14:05.794Z,9.03
2017-07-18T20:16:34.082Z,9.60
2017-07-18T20:19:02.331Z,6.03
2017-07-18T20:21:29.818Z,6.03
2017-07-18T20:23:57.313Z,6.60
2017-07-18T20:26:24.796Z,6.77
2017-07-18T20:28:52.298Z,6.87
2017-07-18T20:31:19.793Z,7.07
2017-07-18T20:33:47.302Z,7.00
2017-07-18T20:36:15.554Z,6.60
2017-07-18T20:38:43.781Z,6.57
2017-07-18T20:41:12.522Z,6.87
2017-07-18T20:43:40.016Z,6.30
2017-07-18T20:46:07.499Z,6.90
2017-07-18T20:48:34.997Z,6.53
2017-07-18T20:51:02.470Z,6.60
2017-07-18T20:53:30.737Z,7.43
2017-07-18T20:55:58.993Z,7.13
2017-07-18T20:58:26.462Z,7.77
2017-07-18T21:00:53.946Z,7.83
2017-07-18T21:03:21.422Z,6.87
2017-07-18T21:05:48.903Z,7.90
2017-07-18T21:08:16.384Z,7.33
2017-07-18T21:10:43.889Z,6.63
2017-07-18T21:13:11.359Z,6.80
2017-07-18T21:15:39.670Z,7.10
2017-07-18T21:18:07.152Z,7.53
2017-07-18T21:20:35.430Z,7.93
2017-07-18T21:23:03.670Z,6.73
2017-07-18T21:25:31.149Z,6.73
2017-07-18T21:27:58.725Z,7.30
2017-07-18T21:30:26.976Z,6.50
2017-07-18T21:32:54.451Z,6.87
2017-07-18T21:35:23.176Z,7.97
2017-07-18T21:37:50.664Z,7.37
2017-07-18T21:40:18.155Z,7.30
2017-07-18T21:42:46.407Z,7.10
2017-07-18T21:45:13.877Z,7.57
2017-07-18T21:47:41.371Z,7.10
2017-07-18T21:50:08.864Z,7.33
2017-07-18T21:52:36.931Z,6.03
2017-07-18T21:55:04.409Z,5.37
2017-07-18T21:57:31.932Z,6.23
2017-07-18T21:59:59.414Z,5.90
2017-07-18T22:02:26.889Z,5.87
2017-07-18T22:04:54.373Z,6.40
2017-07-18T22:07:22.609Z,6.73
2017-07-18T22:09:50.110Z,6.20
2017-07-18T22:12:18.356Z,6.67
2017-07-18T22:14:48.885Z,6.40
2017-07-18T22:17:16.357Z,6.23
2017-07-18T22:19:43.847Z,6.80
2017-07-18T22:22:11.335Z,6.13
2017-07-18T22:24:38.831Z,5.80
2017-07-18T22:30:00.071Z,5.80
2017-07-18T22:32:27.574Z,6.20
2017-07-18T22:34:55.061Z,6.60
2017-07-18T22:37:22.555Z,7.10
2017-07-18T22:39:50.813Z,7.07
2017-07-18T22:42:18.283Z,6.30
2017-07-18T22:44:46.570Z,5.33
2017-07-18T22:47:14.088Z,5.80
2017-07-18T22:49:41.564Z,5.90
2017-07-18T22:52:09.045Z,5.07
2017-07-18T22:54:37.325Z,5.10
2017-07-18T22:57:04.865Z,5.10
2017-07-18T22:59:34.047Z,5.33
2017-07-18T23:02:01.553Z,4.70
2017-07-18T23:04:29.022Z,5.10
2017-07-18T23:06:56.521Z,5.60
2017-07-18T23:09:24.005Z,5.17
2017-07-18T23:11:52.689Z,5.43
2017-07-18T23:14:20.952Z,4.97
2017-07-18T23:16:49.210Z,6.60
2017-07-18T23:19:16.702Z,6.20
2017-07-18T23:21:44.935Z,7.33
2017-07-18T23:24:12.410Z,6.73
2017-07-18T23:26:39.900Z,6.50
2017-07-18T23:29:07.391Z,6.90
2017-07-18T23:34:27.752Z,5.53
2017-07-18T23:36:55.240Z,6.23
2017-07-18T23:39:23.672Z,6.27
2017-07-18T23:41:51.158Z,5.80
2017-07-18T23:44:26.544Z,5.27
2017-07-18T23:46:54.025Z,5.10
2017-07-18T23:52:15.665Z,5.20
2017-07-18T23:54:43.166Z,4.93
2017-07-18T23:57:10.644Z,5.10
2017-07-18T23:59:38.115Z,4.93
